createdAt,value
2022-09-03T00:01:04.128Z,78.33
2022-09-03T00:03:44.598Z,79.05
2022-09-03T00:06:17.598Z,78.33
2022-09-03T00:08:52.890Z,78.77
2022-09-03T00:11:51.594Z,78.55
2022-09-03T00:14:25.051Z,78.70
2022-09-03T00:16:58.221Z,79.32
2022-09-03T00:19:29.189Z,79.02
2022-09-03T00:22:03.433Z,78.86
2022-09-03T00:24:34.748Z,79.18
2022-09-03T00:27:03.806Z,78.78
2022-09-03T00:29:40.223Z,79.22
2022-09-03T00:32:11.942Z,78.65
2022-09-03T00:34:41.341Z,79.26
2022-09-03T00:37:14.494Z,79.34
2022-09-03T00:39:42.494Z,78.91
2022-09-03T00:42:29.333Z,78.96
2022-09-03T00:45:06.610Z,79.31
2022-09-03T00:47:52.995Z,78.42
2022-09-03T00:50:35.820Z,78.15
2022-09-03T00:53:23.243Z,78.40
2022-09-03T00:55:58.484Z,78.19
2022-09-03T00:58:43.875Z,78.71
2022-09-03T01:01:58.143Z,78.67
2022-09-03T01:04:42.079Z,77.79
2022-09-03T01:07:34.121Z,77.96
2022-09-03T01:10:27.979Z,77.22
2022-09-03T01:13:02.167Z,77.24
2022-09-03T01:15:59.743Z,77.10
2022-09-03T01:18:34.530Z,77.65
2022-09-03T01:21:26.790Z,76.78
2022-09-03T01:24:34.703Z,76.66
2022-09-03T01:27:18.507Z,76.59
2022-09-03T01:30:04.141Z,76.62
2022-09-03T01:32:49.029Z,76.68
2022-09-03T01:35:24.291Z,76.42
2022-09-03T01:38:13.146Z,76.19
2022-09-03T01:41:25.817Z,77.06
2022-09-03T01:44:22.216Z,77.06
2022-09-03T01:46:52.260Z,77.88
2022-09-03T01:49:41.289Z,78.22
2022-09-03T01:52:13.605Z,78.11
2022-09-03T01:55:02.476Z,78.06
2022-09-03T01:57:56.151Z,78.21
2022-09-03T02:00:23.176Z,79.50
2022-09-03T02:02:51.869Z,79.40
2022-09-03T02:05:27.463Z,79.14
2022-09-03T02:08:08.071Z,79.89
2022-09-03T02:10:40.544Z,80.50
2022-09-03T02:13:22.386Z,80.76
2022-09-03T02:15:50.543Z,80.70
2022-09-03T02:18:21.007Z,80.43
2022-09-03T02:20:48.762Z,81.23
2022-09-03T02:23:16.019Z,82.33
2022-09-03T02:25:45.610Z,82.39
2022-09-03T02:28:17.622Z,82.83
2022-09-03T02:30:44.558Z,81.87
2022-09-03T02:33:11.303Z,81.93
2022-09-03T02:35:38.008Z,83.12
2022-09-03T02:38:17.011Z,82.64
2022-09-03T02:40:44.392Z,82.97
2022-09-03T02:43:16.464Z,83.21
2022-09-03T02:45:47.394Z,83.25
2022-09-03T02:48:17.108Z,83.11
2022-09-03T02:50:43.878Z,83.32
2022-09-03T02:53:10.426Z,83.65
2022-09-03T02:55:38.663Z,83.56
2022-09-03T02:58:06.840Z,83.88
2022-09-03T03:00:33.574Z,84.45
2022-09-03T03:03:00.102Z,84.16
2022-09-03T03:05:38.383Z,84.19
2022-09-03T03:08:04.950Z,84.56
2022-09-03T03:10:31.789Z,85.41
2022-09-03T03:12:58.628Z,85.89
2022-09-03T03:15:25.294Z,86.35
2022-09-03T03:17:51.783Z,86.65
2022-09-03T03:20:18.324Z,86.12
2022-09-03T03:22:44.846Z,86.11
2022-09-03T03:25:11.497Z,86.61
2022-09-03T03:27:39.789Z,86.34
2022-09-03T03:30:10.181Z,86.38
2022-09-03T03:32:37.614Z,87.12
2022-09-03T03:35:05.414Z,87.19
2022-09-03T03:37:33.066Z,87.43
2022-09-03T03:39:59.814Z,86.59
2022-09-03T03:42:26.384Z,86.58
2022-09-03T03:44:52.995Z,86.01
2022-09-03T03:47:19.504Z,86.69
2022-09-03T03:49:46.008Z,86.08
2022-09-03T03:52:12.548Z,87.13
2022-09-03T03:54:39.063Z,86.71
2022-09-03T03:57:05.606Z,85.85
2022-09-03T03:59:32.110Z,86.47
2022-09-03T04:01:58.642Z,86.20
2022-09-03T04:04:25.280Z,86.06
2022-09-03T04:06:51.784Z,86.31
2022-09-03T04:09:18.788Z,86.42
2022-09-03T04:11:45.490Z,86.49
2022-09-03T04:14:12.001Z,86.80
2022-09-03T04:16:38.590Z,86.84
2022-09-03T04:19:05.493Z,87.24
2022-09-03T04:21:31.996Z,86.86
2022-09-03T04:23:59.197Z,86.85
2022-09-03T04:26:31.296Z,87.41
2022-09-03T04:29:08.229Z,86.47
2022-09-03T04:31:35.958Z,85.99
2022-09-03T04:34:02.869Z,85.63
2022-09-03T04:36:30.934Z,85.13
2022-09-03T04:39:00.186Z,84.43
2022-09-03T04:41:29.093Z,83.42
2022-09-03T04:43:57.399Z,83.98
2022-09-03T04:46:26.226Z,82.91
2022-09-03T04:48:54.875Z,83.17
2022-09-03T04:51:27.403Z,83.13
2022-09-03T04:53:59.046Z,83.26
2022-09-03T04:56:31.345Z,84.07
2022-09-03T04:59:01.467Z,83.78
2022-09-03T05:01:30.261Z,82.61
2022-09-03T05:03:57.914Z,83.49
2022-09-03T05:06:28.580Z,83.46
2022-09-03T05:08:55.684Z,83.49
2022-09-03T05:11:23.160Z,83.04
2022-09-03T05:13:52.054Z,83.16
2022-09-03T05:16:18.893Z,82.96
2022-09-03T05:18:46.947Z,82.46
2022-09-03T05:21:18.153Z,82.52
2022-09-03T05:23:46.919Z,81.61
2022-09-03T05:26:18.650Z,81.97
2022-09-03T05:28:45.874Z,81.06
2022-09-03T05:31:14.571Z,81.18
2022-09-03T05:33:51.561Z,80.41
2022-09-03T05:36:20.300Z,80.36
2022-09-03T05:38:47.912Z,79.38
2022-09-03T05:41:16.392Z,80.02
2022-09-03T05:43:45.652Z,79.11
2022-09-03T05:46:18.507Z,78.30
2022-09-03T05:48:45.037Z,77.56
2022-09-03T05:51:16.617Z,77.42
2022-09-03T05:53:44.764Z,77.26
2022-09-03T05:56:18.049Z,76.66
2022-09-03T05:58:49.660Z,76.18
2022-09-03T06:01:18.763Z,76.30
2022-09-03T06:03:46.599Z,76.11
2022-09-03T06:06:13.976Z,75.65
2022-09-03T06:08:41.449Z,75.44
2022-09-03T06:11:08.458Z,75.20
2022-09-03T06:13:35.486Z,74.97
2022-09-03T06:16:06.526Z,73.80
2022-09-03T06:18:33.094Z,74.06
2022-09-03T06:21:01.607Z,74.05
2022-09-03T06:23:29.390Z,72.85
2022-09-03T06:26:14.591Z,72.48
2022-09-03T06:28:43.475Z,72.04
2022-09-03T06:31:12.740Z,71.81
2022-09-03T06:33:40.294Z,71.40
2022-09-03T06:36:09.801Z,71.01
2022-09-03T06:38:37.627Z,70.49
2022-09-03T06:41:05.626Z,69.97
2022-09-03T06:43:34.796Z,69.45
2022-09-03T06:46:03.944Z,68.69
2022-09-03T06:48:32.021Z,67.97
2022-09-03T06:51:10.062Z,67.09
2022-09-03T06:53:38.422Z,66.63
2022-09-03T06:56:10.854Z,66.52
2022-09-03T06:58:43.176Z,66.02
2022-09-03T07:01:14.509Z,65.77
2022-09-03T07:03:42.767Z,65.80
2022-09-03T07:06:14.379Z,64.51
2022-09-03T07:08:42.942Z,63.79
2022-09-03T07:11:12.043Z,62.87
2022-09-03T07:13:44.865Z,61.92
2022-09-03T07:16:17.280Z,61.16
2022-09-03T07:18:44.467Z,60.55
2022-09-03T07:21:13.700Z,59.47
2022-09-03T07:23:41.515Z,59.22
2022-09-03T07:26:16.465Z,59.11
2022-09-03T07:28:44.054Z,59.22
2022-09-03T07:31:25.650Z,58.08
2022-09-03T07:33:56.453Z,57.92
2022-09-03T07:36:24.153Z,57.46
2022-09-03T07:38:51.272Z,57.16
2022-09-03T07:41:23.919Z,56.64
2022-09-03T07:43:55.156Z,56.60
2022-09-03T07:46:23.926Z,55.53
2022-09-03T07:48:55.375Z,55.41
2022-09-03T07:51:26.713Z,55.09
2022-09-03T07:53:57.975Z,54.96
2022-09-03T07:56:24.909Z,55.06
2022-09-03T07:58:51.659Z,55.01
2022-09-03T08:01:20.011Z,53.72
2022-09-03T08:03:48.607Z,53.84
2022-09-03T08:06:16.764Z,53.81
2022-09-03T08:08:45.555Z,53.62
2022-09-03T08:11:17.113Z,52.80
2022-09-03T08:13:45.761Z,53.30
2022-09-03T08:16:15.643Z,53.16
2022-09-03T08:18:42.249Z,52.49
2022-09-03T08:21:12.279Z,51.84
2022-09-03T08:23:39.911Z,52.13
2022-09-03T08:26:07.708Z,51.96
2022-09-03T08:28:35.502Z,51.12
2022-09-03T08:31:10.042Z,50.84
2022-09-03T08:33:40.527Z,50.57
2022-09-03T08:36:18.659Z,50.55
2022-09-03T08:38:46.494Z,50.42
2022-09-03T08:41:24.145Z,49.86
2022-09-03T08:44:03.047Z,49.03
2022-09-03T08:46:41.481Z,48.38
2022-09-03T08:49:11.516Z,47.64
2022-09-03T08:51:40.248Z,48.20
2022-09-03T08:54:09.466Z,47.89
2022-09-03T08:56:39.347Z,46.92
2022-09-03T08:59:05.915Z,45.83
2022-09-03T09:01:55.016Z,45.62
2022-09-03T09:04:32.299Z,45.65
2022-09-03T09:07:17.335Z,45.97
2022-09-03T09:09:49.022Z,45.25
2022-09-03T09:12:42.783Z,45.06
2022-09-03T09:15:27.579Z,43.65
2022-09-03T09:18:04.211Z,42.59
2022-09-03T09:20:45.844Z,42.65
2022-09-03T09:23:20.383Z,42.31
2022-09-03T09:25:50.067Z,41.26
2022-09-03T09:28:20.533Z,40.81
2022-09-03T09:30:48.767Z,39.35
2022-09-03T09:33:16.290Z,39.23
2022-09-03T09:35:43.383Z,39.42
2022-09-03T09:38:10.886Z,39.73
2022-09-03T09:40:45.117Z,40.24
2022-09-03T09:43:21.434Z,41.12
2022-09-03T09:45:49.873Z,41.47
2022-09-03T09:48:31.107Z,39.23
2022-09-03T09:51:06.036Z,38.70
2022-09-03T09:53:32.725Z,40.11
2022-09-03T09:55:59.227Z,39.63
2022-09-03T09:58:28.363Z,38.91
2022-09-03T10:01:13.438Z,38.87
2022-09-03T10:04:00.013Z,39.81
2022-09-03T10:06:47.103Z,40.43
2022-09-03T10:09:18.594Z,41.24
2022-09-03T10:12:14.274Z,40.92
2022-09-03T10:14:46.091Z,41.29
2022-09-03T10:17:19.857Z,41.89
2022-09-03T10:20:15.571Z,42.75
2022-09-03T10:22:56.254Z,43.06
2022-09-03T10:25:28.349Z,42.20
2022-09-03T10:27:56.673Z,41.85
2022-09-03T10:30:26.392Z,41.48
2022-09-03T10:33:16.861Z,42.25
2022-09-03T10:35:52.687Z,41.99
2022-09-03T10:38:29.956Z,41.87
2022-09-03T10:41:26.222Z,42.47
2022-09-03T10:43:58.441Z,42.95
2022-09-03T10:46:29.827Z,42.22
2022-09-03T10:49:35.418Z,43.17
2022-09-03T10:52:09.955Z,42.64
2022-09-03T10:55:06.039Z,42.97
2022-09-03T10:57:54.860Z,42.09
2022-09-03T11:00:22.327Z,42.97
2022-09-03T11:02:54.815Z,43.06
2022-09-03T11:05:24.967Z,41.78
2022-09-03T11:07:55.891Z,42.13
2022-09-03T11:10:30.553Z,41.36
2022-09-03T11:13:03.822Z,42.01
2022-09-03T11:15:34.275Z,42.70
2022-09-03T11:18:36.011Z,42.79
2022-09-03T11:21:08.922Z,42.92
2022-09-03T11:23:42.194Z,42.93
2022-09-03T11:26:12.782Z,43.11
2022-09-03T11:28:58.595Z,43.25
2022-09-03T11:31:38.838Z,43.67
2022-09-03T11:34:14.069Z,44.65
2022-09-03T11:36:50.039Z,44.83
2022-09-03T11:39:35.149Z,44.43
2022-09-03T11:42:09.682Z,45.48
2022-09-03T11:44:51.295Z,43.68
2022-09-03T11:47:45.190Z,42.74
2022-09-03T11:50:30.792Z,43.51
2022-09-03T11:53:36.485Z,42.45
2022-09-03T11:56:06.127Z,42.81
2022-09-03T11:58:34.701Z,43.03
2022-09-03T12:01:03.575Z,44.57
2022-09-03T12:03:49.088Z,45.32
2022-09-03T12:06:34.339Z,45.05
2022-09-03T12:09:39.182Z,44.56
2022-09-03T12:12:57.564Z,43.64
2022-09-03T12:16:01.874Z,43.32
2022-09-03T12:18:31.593Z,42.67
2022-09-03T12:21:00.842Z,42.36
2022-09-03T12:23:44.658Z,40.84
2022-09-03T12:26:15.058Z,40.57
2022-09-03T12:28:44.321Z,40.59
2022-09-03T12:31:24.005Z,40.96
2022-09-03T12:33:51.635Z,42.52
2022-09-03T12:36:18.264Z,43.83
2022-09-03T12:39:10.537Z,44.78
2022-09-03T12:41:32.474Z,44.47
2022-09-03T12:44:00.575Z,43.44
2022-09-03T12:46:34.042Z,41.78
2022-09-03T12:52:05.867Z,43.05
2022-09-03T12:54:34.696Z,42.34
2022-09-03T12:57:01.346Z,42.65
2022-09-03T12:59:29.409Z,42.95
2022-09-03T13:01:58.731Z,43.38
2022-09-03T13:04:36.559Z,43.91
2022-09-03T13:07:13.930Z,44.89
2022-09-03T13:09:41.064Z,46.00
2022-09-03T13:12:08.810Z,45.57
2022-09-03T13:14:47.580Z,45.23
2022-09-03T13:17:28.863Z,44.51
2022-09-03T13:20:29.471Z,44.02
2022-09-03T13:23:29.664Z,45.46
2022-09-03T13:26:23.062Z,45.22
2022-09-03T13:29:15.302Z,44.87
2022-09-03T13:31:49.978Z,44.52
2022-09-03T13:34:25.550Z,43.95
2022-09-03T13:36:56.813Z,43.85
2022-09-03T13:39:41.997Z,43.35
2022-09-03T13:42:29.320Z,43.91
2022-09-03T13:45:33.069Z,43.06
2022-09-03T13:48:28.902Z,42.76
2022-09-03T13:51:03.991Z,42.89
2022-09-03T13:53:39.814Z,43.70
2022-09-03T13:56:16.988Z,43.28
2022-09-03T13:58:48.154Z,43.83
2022-09-03T14:01:39.550Z,44.79
2022-09-03T14:04:15.038Z,44.19
2022-09-03T14:06:52.168Z,44.42
2022-09-03T14:09:18.549Z,45.10
2022-09-03T14:11:59.083Z,45.37
2022-09-03T14:14:37.510Z,48.01
2022-09-03T14:17:09.867Z,47.77
2022-09-03T14:19:47.041Z,48.54
2022-09-03T14:22:46.057Z,47.81
2022-09-03T14:25:16.388Z,48.22
2022-09-03T14:27:43.397Z,48.86
2022-09-03T14:30:41.342Z,49.08
2022-09-03T14:33:24.311Z,49.13
2022-09-03T14:35:58.729Z,49.48
2022-09-03T14:38:50.855Z,49.42
2022-09-03T14:41:37.252Z,49.08
2022-09-03T14:44:17.961Z,47.86
2022-09-03T14:47:03.263Z,47.66
2022-09-03T14:50:04.313Z,48.30
2022-09-03T14:52:48.665Z,48.60
2022-09-03T14:55:23.133Z,48.87
2022-09-03T14:58:25.133Z,48.57
2022-09-03T15:01:39.240Z,47.59
2022-09-03T15:04:25.323Z,47.09
2022-09-03T15:07:01.103Z,47.42
2022-09-03T15:09:32.925Z,47.92
2022-09-03T15:12:24.651Z,47.74
2022-09-03T15:14:55.605Z,46.96
2022-09-03T15:17:26.846Z,46.99
2022-09-03T15:20:19.139Z,47.02
2022-09-03T15:22:51.551Z,46.92
2022-09-03T15:25:27.194Z,46.79
2022-09-03T15:28:34.414Z,46.87
2022-09-03T15:31:33.770Z,48.07
2022-09-03T15:34:18.699Z,47.98
2022-09-03T15:36:54.059Z,47.75
2022-09-03T15:39:26.832Z,48.15
2022-09-03T15:42:24.902Z,47.77
2022-09-03T15:44:54.891Z,48.00
2022-09-03T15:47:50.719Z,47.98
2022-09-03T15:50:38.318Z,48.05
2022-09-03T15:53:34.108Z,48.23
2022-09-03T15:56:20.178Z,48.57
2022-09-03T15:59:15.813Z,48.76
2022-09-03T16:01:54.154Z,48.65
2022-09-03T16:04:58.848Z,49.35
2022-09-03T16:07:37.258Z,49.65
2022-09-03T16:13:04.635Z,50.16
2022-09-03T16:15:43.951Z,50.37
2022-09-03T16:18:57.582Z,50.39
2022-09-03T16:21:36.348Z,49.99
2022-09-03T16:24:16.501Z,50.10
2022-09-03T16:26:54.268Z,50.35
2022-09-03T16:29:30.776Z,50.75
2022-09-03T16:32:21.221Z,51.07
2022-09-03T16:34:56.873Z,51.72
2022-09-03T16:37:48.156Z,52.30
2022-09-03T16:40:37.737Z,52.15
2022-09-03T16:43:40.613Z,52.73
2022-09-03T16:46:29.207Z,53.26
2022-09-03T16:49:13.296Z,53.79
2022-09-03T16:52:26.533Z,53.91
2022-09-03T16:55:00.015Z,53.01
2022-09-03T16:57:57.353Z,53.12
2022-09-03T17:00:28.346Z,52.67
2022-09-03T17:03:26.043Z,52.59
2022-09-03T17:06:15.087Z,53.62
2022-09-03T17:09:19.744Z,54.21
2022-09-03T17:12:02.425Z,54.78
2022-09-03T17:14:39.753Z,55.73
2022-09-03T17:17:33.790Z,55.52
2022-09-03T17:20:04.367Z,56.56
2022-09-03T17:22:55.756Z,56.44
2022-09-03T17:25:29.210Z,57.01
2022-09-03T17:28:27.307Z,56.73
2022-09-03T17:30:58.938Z,57.56
2022-09-03T17:33:50.132Z,57.67
2022-09-03T17:36:18.654Z,57.42
2022-09-03T17:39:03.281Z,58.07
2022-09-03T17:41:35.688Z,58.20
2022-09-03T17:44:14.782Z,58.69
2022-09-03T17:47:12.383Z,58.76
2022-09-03T17:49:52.637Z,58.98
2022-09-03T17:52:32.515Z,59.93
2022-09-03T17:55:25.272Z,59.92
2022-09-03T17:58:00.048Z,60.33
2022-09-03T18:00:55.340Z,61.18
2022-09-03T18:03:33.196Z,61.72
2022-09-03T18:06:23.482Z,62.04
2022-09-03T18:08:57.414Z,62.12
2022-09-03T18:11:40.523Z,62.60
2022-09-03T18:14:29.173Z,63.28
2022-09-03T18:17:04.682Z,64.04
2022-09-03T18:20:14.462Z,64.52
2022-09-03T18:23:18.816Z,65.00
2022-09-03T18:26:07.071Z,64.99
2022-09-03T18:29:02.130Z,65.64
2022-09-03T18:31:47.030Z,65.83
2022-09-03T18:34:32.365Z,66.06
2022-09-03T18:37:17.914Z,66.06
2022-09-03T18:40:05.841Z,67.20
2022-09-03T18:43:26.280Z,68.11
2022-09-03T18:49:45.851Z,69.08
2022-09-03T18:52:37.579Z,69.86
2022-09-03T18:55:32.074Z,70.05
2022-09-03T18:58:26.339Z,70.27
2022-09-03T19:01:15.804Z,70.71
2022-09-03T19:04:16.861Z,70.85
2022-09-03T19:07:27.620Z,71.51
2022-09-03T19:10:19.424Z,71.70
2022-09-03T19:13:27.153Z,71.98
2022-09-03T19:16:31.526Z,72.29
2022-09-03T19:19:26.151Z,72.33
2022-09-03T19:22:15.015Z,72.79
2022-09-03T19:25:00.100Z,72.82
2022-09-03T19:28:06.812Z,72.96
2022-09-03T19:31:03.539Z,73.21
2022-09-03T19:34:00.880Z,73.37
2022-09-03T19:37:03.045Z,73.72
2022-09-03T19:40:15.579Z,73.43
2022-09-03T19:43:09.801Z,73.79
2022-09-03T19:45:59.551Z,74.05
2022-09-03T19:48:59.545Z,73.63
2022-09-03T19:52:28.306Z,73.83
2022-09-03T19:55:16.672Z,73.50
2022-09-03T19:58:32.201Z,74.17
2022-09-03T20:01:18.769Z,74.28
2022-09-03T20:04:03.826Z,74.43
2022-09-03T20:06:52.194Z,74.19
2022-09-03T20:09:39.263Z,74.68
2022-09-03T20:12:10.429Z,74.38
2022-09-03T20:14:37.459Z,74.36
2022-09-03T20:17:18.866Z,74.45
2022-09-03T20:20:10.928Z,74.26
2022-09-03T20:22:40.437Z,74.46
2022-09-03T20:25:20.379Z,74.83
2022-09-03T20:27:46.811Z,74.82
2022-09-03T20:30:28.215Z,74.98
2022-09-03T20:33:39.395Z,75.28
2022-09-03T20:36:17.501Z,74.89
2022-09-03T20:38:58.724Z,74.80
2022-09-03T20:41:37.242Z,74.76
2022-09-03T20:44:25.644Z,75.62
2022-09-03T20:47:11.966Z,75.30
2022-09-03T20:50:06.626Z,75.76
2022-09-03T20:52:47.174Z,75.24
2022-09-03T20:55:21.771Z,75.54
2022-09-03T20:58:22.583Z,75.83
2022-09-03T21:01:05.719Z,75.17
2022-09-03T21:04:09.442Z,76.03
2022-09-03T21:06:48.451Z,76.39
2022-09-03T21:09:14.903Z,76.19
2022-09-03T21:11:48.242Z,76.31
2022-09-03T21:14:34.837Z,76.61
2022-09-03T21:17:26.155Z,76.41
2022-09-03T21:20:18.164Z,76.42
2022-09-03T21:23:06.474Z,76.50
2022-09-03T21:25:42.788Z,77.28
2022-09-03T21:28:22.314Z,76.83
2022-09-03T21:31:01.274Z,76.92
2022-09-03T21:33:39.073Z,77.33
2022-09-03T21:36:42.125Z,77.42
2022-09-03T21:39:20.139Z,77.36
2022-09-03T21:42:12.299Z,77.96
2022-09-03T21:44:47.357Z,78.52
2022-09-03T21:47:16.179Z,78.63
2022-09-03T21:50:01.265Z,78.85
2022-09-03T21:52:34.678Z,79.37
2022-09-03T21:55:02.806Z,79.97
2022-09-03T21:57:44.151Z,79.90
2022-09-03T22:00:18.036Z,79.63
2022-09-03T22:02:46.559Z,80.94
2022-09-03T22:05:14.715Z,80.42
2022-09-03T22:07:56.255Z,80.51
2022-09-03T22:10:25.814Z,80.22
2022-09-03T22:13:29.943Z,81.06
2022-09-03T22:16:23.283Z,81.26
2022-09-03T22:18:50.317Z,81.87
2022-09-03T22:22:04.635Z,81.47
2022-09-03T22:24:47.954Z,81.77
2022-09-03T22:27:22.306Z,82.37
2022-09-03T22:30:08.634Z,82.75
2022-09-03T22:32:44.156Z,82.77
2022-09-03T22:35:38.748Z,83.13
2022-09-03T22:38:31.878Z,83.76
2022-09-03T22:41:02.672Z,84.01
2022-09-03T22:43:37.587Z,83.34
2022-09-03T22:46:05.543Z,83.69
2022-09-03T22:49:09.817Z,83.50
2022-09-03T22:52:04.134Z,83.61
2022-09-03T22:55:12.109Z,83.67
2022-09-03T22:57:46.337Z,83.93
2022-09-03T23:00:13.113Z,84.07
2022-09-03T23:02:40.212Z,84.35
2022-09-03T23:05:30.505Z,84.07
2022-09-03T23:08:09.579Z,83.96
2022-09-03T23:10:42.850Z,84.61
2022-09-03T23:13:22.239Z,84.20
2022-09-03T23:16:18.792Z,84.64
2022-09-03T23:18:48.288Z,85.03
2022-09-03T23:21:25.466Z,85.25
2022-09-03T23:24:14.554Z,85.60
2022-09-03T23:26:42.872Z,85.14
2022-09-03T23:29:13.510Z,85.08
2022-09-03T23:31:40.104Z,86.00
2022-09-03T23:34:08.938Z,85.93
2022-09-03T23:37:29.630Z,86.18
2022-09-03T23:39:49.389Z,86.09
2022-09-03T23:42:31.616Z,86.44
2022-09-03T23:45:15.718Z,86.66
2022-09-03T23:47:59.147Z,86.93
2022-09-03T23:50:31.796Z,86.16
2022-09-03T23:53:11.037Z,86.15
2022-09-03T23:55:45.796Z,86.44
2022-09-03T23:59:02.523Z,86.79
